Henriette, MN (55036)

2:49 PM CDT on July 29, 2016 (GMT -0500)
None | | Change Station

Elev 1030 ft 45.96 °N, 93.04 °W | Updated 1 minute ago

Clear
Clear
77.9 °F
Feels Like 78 °F
N
1.1
Wind Variable Wind from NNW
Gusts 2.5 mph

Today
High -- | Low -- °F
--% Chance of Precip.
Yesterday
High -- | Low -- °F
Precip. -- in
Pressure 30.08 in
Visibility 10.0 miles
Clouds Clear
Heat Index 78 °F
Dew Point 49 °F
Humidity 36%
Rainfall 0.00 in
Snow Depth Not available.
5:51 AM 8:43 PM
Waning Crescent, 19% visible
METAR KROS 291934Z AUTO 02005KT 10SM CLR 24/12 A3008 RMK AO2 T02360122
Pressure 30.08 in
Visibility 10.0 miles
Clouds Clear
Heat Index 78 °F
Dew Point 49 °F
Humidity 36%
Rainfall 0.00 in
Snow Depth Not available.
5:51 AM 8:43 PM
Waning Crescent, 19% visible
METAR KROS 291934Z AUTO 02005KT 10SM CLR 24/12 A3008 RMK AO2 T02360122

10-Day Weather Forecast

Almanac

Astronomy

Jul. 29, 2016 Rise Set
Actual Time
Civil Twilight
Nautical Twilight
Astronomical Twilight
Moon
Length of Visible Light
Length of Day
Tomorrow will be .
, % of the Moon is Illuminated

Today's Extremes

State Highs State Lows

Community

WunderPhotos

Upload Photos

1,928,401 photos uploaded!

WunderBlog® & News

Nearby

Air Quality

  Air Quality AQ Index Pollutant
Not available.

Snow Depth

Station Depth Elevation

Earthquake Activity

City Distance Mag. Time & Date
Minimum magnitude displayed is 2.5.

Coastal Water Temperatures

Place Temperature

Stations

Nearby Weather Stations

Station Location Temp. Windchill Dew Point Humidity Wind Precip. Elev Updated Type
                   

Watches & Warnings

There are currently no watches in effect.